Time;durP1;ratioP1;P1;durP2;ratioP2;P2;SDS_P1;SDS_P2;PMS_P1;PMS_P2;Temp;Humidity;BMP_temperature;BMP_pressure;BME280_temperature;BME280_humidity;BME280_pressure;Samples;Min_cycle;Max_cycle;Signal;HPM_P1;HPM_P2
2023/08/27 00:02:10;;;;;;;4.68;1.92;;;26.40;75.90;;;;;;6150838;28;81002;-56
2023/08/27 00:05:11;;;;;;;3.80;1.83;;;26.20;74.60;;;;;;6151869;28;80813;-57
2023/08/27 00:08:11;;;;;;;5.78;2.00;;;25.90;75.10;;;;;;6151172;28;80545;-57
2023/08/27 00:11:12;;;;;;;4.22;1.75;;;25.60;75.40;;;;;;6152147;28;80044;-57
2023/08/27 00:14:12;;;;;;;5.22;1.67;;;25.30;76.30;;;;;;6152324;28;80580;-56
2023/08/27 00:17:13;;;;;;;4.93;1.60;;;24.90;78.20;;;;;;6140014;28;82482;-59
2023/08/27 00:20:13;;;;;;;6.43;1.77;;;25.30;79.00;;;;;;6151269;28;80305;-59
2023/08/27 00:23:14;;;;;;;3.47;1.30;;;25.20;77.80;;;;;;6151066;28;80605;-59
2023/08/27 00:26:14;;;;;;;2.47;1.55;;;24.90;78.50;;;;;;6150058;28;80472;-59
2023/08/27 00:29:19;;;;;;;2.90;1.23;;;24.60;79.50;;;;;;6149695;28;82908;-59
2023/08/27 00:32:19;;;;;;;1.98;1.02;;;24.40;81.10;;;;;;6140103;28;83631;-59
2023/08/27 00:35:20;;;;;;;2.20;1.00;;;24.60;81.80;;;;;;6150566;28;83653;-57
2023/08/27 00:38:21;;;;;;;2.33;1.27;;;25.00;79.50;;;;;;6150682;28;83704;-57
2023/08/27 00:41:21;;;;;;;5.18;1.42;;;25.30;79.10;;;;;;6137165;28;83640;-56
2023/08/27 00:44:22;;;;;;;2.83;1.40;;;25.50;78.40;;;;;;6149048;28;83884;-58
2023/08/27 00:47:22;;;;;;;1.42;1.05;;;25.00;80.10;;;;;;6165957;28;82968;-58
2023/08/27 00:50:25;;;;;;;5.40;1.70;;;25.10;80.30;;;;;;6153160;28;82571;-57
2023/08/27 00:53:25;;;;;;;1.48;1.30;;;25.40;78.70;;;;;;6155239;28;81646;-65
2023/08/27 00:56:26;;;;;;;3.72;1.60;;;25.60;78.60;;;;;;6170392;28;82271;-66
2023/08/27 00:59:26;;;;;;;5.18;1.38;;;25.80;78.20;;;;;;6147271;28;83514;-65
2023/08/27 01:02:27;;;;;;;4.40;1.70;;;25.90;77.40;;;;;;6151719;28;80428;-65
2023/08/27 01:05:28;;;;;;;4.13;1.92;;;25.70;77.40;;;;;;6170769;28;83098;-64
2023/08/27 01:08:28;;;;;;;2.38;2.10;;;25.10;80.30;;;;;;6155785;28;80974;-65
2023/08/27 01:11:29;;;;;;;9.02;2.17;;;24.50;84.00;;;;;;6169583;28;81908;-57
2023/08/27 01:14:29;;;;;;;3.08;2.00;;;24.10;87.40;;;;;;6156081;28;81546;-58
2023/08/27 01:17:30;;;;;;;3.65;2.38;;;23.90;89.50;;;;;;6168668;28;83092;-59
2023/08/27 01:20:34;;;;;;;6.15;2.40;;;23.80;90.40;;;;;;6154704;28;80698;-58
2023/08/27 01:23:34;;;;;;;2.63;1.65;;;23.70;91.10;;;;;;6154490;28;80531;-59
2023/08/27 01:26:35;;;;;;;2.88;2.13;;;23.80;91.10;;;;;;6146511;28;80174;-57
2023/08/27 01:29:36;;;;;;;3.15;1.90;;;23.60;91.50;;;;;;6128730;28;81415;-58
2023/08/27 01:32:36;;;;;;;2.28;2.03;;;23.60;91.80;;;;;;6156449;28;83443;-58
2023/08/27 01:35:37;;;;;;;5.85;2.40;;;23.80;91.40;;;;;;6144036;28;83203;-57
2023/08/27 01:38:38;;;;;;;7.30;2.33;;;23.80;91.40;;;;;;6140805;28;80589;-59
2023/08/27 01:41:39;;;;;;;3.90;2.28;;;23.80;91.80;;;;;;6142212;28;80405;-58
2023/08/27 01:44:39;;;;;;;10.63;2.28;;;23.90;91.60;;;;;;6148892;28;83424;-58
2023/08/27 01:47:40;;;;;;;3.67;2.28;;;24.30;91.00;;;;;;6110637;28;83677;-65
2023/08/27 01:50:40;;;;;;;3.83;2.05;;;24.50;90.30;;;;;;6140570;28;80414;-57
2023/08/27 01:53:42;;;;;;;6.07;2.78;;;24.70;89.70;;;;;;6152664;28;81120;-57
2023/08/27 01:56:43;;;;;;;4.05;2.22;;;24.90;88.90;;;;;;6152638;28;82345;-58
2023/08/27 01:59:44;;;;;;;4.35;2.25;;;25.10;87.40;;;;;;6150942;28;83431;-57
2023/08/27 02:02:44;;;;;;;3.03;2.20;;;25.20;86.30;;;;;;6151353;28;83228;-58
2023/08/27 02:05:45;;;;;;;3.28;2.53;;;25.10;85.80;;;;;;6152255;28;83295;-57
2023/08/27 02:08:45;;;;;;;5.30;2.65;;;24.70;86.80;;;;;;6152652;28;83192;-64
2023/08/27 02:11:46;;;;;;;5.85;2.22;;;24.40;88.40;;;;;;6151967;28;81628;-63
2023/08/27 02:14:46;;;;;;;2.88;2.30;;;24.10;90.20;;;;;;6148317;28;83104;-66
2023/08/27 02:17:47;;;;;;;5.45;2.63;;;24.20;90.40;;;;;;6116335;28;83475;-65
2023/08/27 02:20:47;;;;;;;3.88;2.20;;;24.40;89.80;;;;;;6162267;28;83867;-66
2023/08/27 02:23:48;;;;;;;2.40;2.20;;;24.20;90.00;;;;;;6149140;28;81892;-66
2023/08/27 02:26:49;;;;;;;3.00;2.38;;;24.20;90.40;;;;;;6151343;28;80970;-65
2023/08/27 02:29:51;;;;;;;6.05;2.60;;;24.20;90.30;;;;;;6152575;28;83358;-66
2023/08/27 02:32:51;;;;;;;2.30;2.08;;;24.40;89.70;;;;;;6147483;28;83499;-66
2023/08/27 02:35:53;;;;;;;4.43;2.55;;;24.70;88.40;;;;;;6153892;28;80848;-67
2023/08/27 02:38:54;;;;;;;2.97;2.67;;;25.00;87.20;;;;;;6151199;28;84220;-63
2023/08/27 02:41:54;;;;;;;4.82;3.00;;;24.80;86.90;;;;;;6151839;28;81998;-64
2023/08/27 02:44:55;;;;;;;4.95;2.53;;;24.60;87.80;;;;;;6152916;28;80517;-57
2023/08/27 02:47:55;;;;;;;5.22;2.80;;;24.70;88.20;;;;;;6153483;28;81394;-55
2023/08/27 02:50:56;;;;;;;6.20;3.50;;;24.90;87.20;;;;;;6146362;28;81179;-57
2023/08/27 02:53:56;;;;;;;4.47;3.42;;;24.90;86.30;;;;;;6152473;28;83570;-57
2023/08/27 02:56:57;;;;;;;4.25;2.90;;;24.80;86.60;;;;;;6152933;28;80480;-53
2023/08/27 02:59:57;;;;;;;4.20;2.97;;;25.10;86.40;;;;;;6151226;28;84352;-54
2023/08/27 03:02:58;;;;;;;4.70;2.72;;;25.20;85.30;;;;;;6150943;28;83440;-59
2023/08/27 03:05:59;;;;;;;5.13;3.17;;;25.30;84.80;;;;;;6151023;28;82932;-58
2023/08/27 03:08:59;;;;;;;5.70;3.17;;;25.50;84.70;;;;;;6151053;28;82230;-59
2023/08/27 03:12:00;;;;;;;3.75;2.97;;;25.60;83.50;;;;;;6149778;28;83339;-60
2023/08/27 03:15:00;;;;;;;4.38;3.10;;;25.70;83.10;;;;;;6151872;28;81827;-59
2023/08/27 03:18:01;;;;;;;5.22;2.90;;;25.80;82.60;;;;;;6153115;28;81946;-58
2023/08/27 03:21:01;;;;;;;5.03;2.80;;;25.90;82.10;;;;;;6152594;28;81048;-59
2023/08/27 03:24:03;;;;;;;4.32;2.97;;;25.90;81.60;;;;;;6150013;28;83664;-57
2023/08/27 03:27:04;;;;;;;5.22;3.60;;;25.90;81.10;;;;;;6151410;28;80620;-58
2023/08/27 03:30:04;;;;;;;5.55;3.15;;;25.80;81.20;;;;;;6142286;28;82325;-58
2023/08/27 03:33:05;;;;;;;3.88;3.10;;;25.80;82.00;;;;;;6150334;28;83514;-58
2023/08/27 03:36:06;;;;;;;5.43;3.00;;;25.80;81.20;;;;;;6155993;28;83424;-60
2023/08/27 03:39:08;;;;;;;5.03;3.03;;;26.00;81.00;;;;;;6151483;28;80485;-55
2023/08/27 03:42:09;;;;;;;6.18;3.25;;;26.00;80.70;;;;;;6150360;28;82942;-57
2023/08/27 03:45:09;;;;;;;6.13;3.25;;;25.90;80.60;;;;;;6152814;28;81198;-56
2023/08/27 03:48:10;;;;;;;4.32;3.30;;;26.00;80.50;;;;;;6149430;28;81909;-56
2023/08/27 03:51:10;;;;;;;4.50;3.38;;;26.10;80.60;;;;;;6145882;28;83735;-53
2023/08/27 03:54:12;;;;;;;6.40;3.45;;;26.10;80.40;;;;;;6150421;28;83792;-53
2023/08/27 03:57:12;;;;;;;3.40;2.95;;;26.10;80.50;;;;;;6153890;28;80570;-58
2023/08/27 04:00:13;;;;;;;3.30;3.00;;;26.10;80.60;;;;;;6152371;28;81412;-59
2023/08/27 04:03:16;;;;;;;4.22;2.88;;;26.10;80.20;;;;;;6150361;28;85001;-58
2023/08/27 04:06:16;;;;;;;4.22;3.10;;;26.20;80.60;;;;;;6150138;28;83653;-59
2023/08/27 04:09:17;;;;;;;3.20;2.88;;;26.20;80.60;;;;;;6150079;28;82287;-59
2023/08/27 04:12:17;;;;;;;4.90;3.00;;;26.20;80.20;;;;;;6150269;28;81144;-55
2023/08/27 04:15:18;;;;;;;5.88;3.58;;;26.20;80.20;;;;;;6150531;28;81588;-59
2023/08/27 04:18:19;;;;;;;3.55;2.78;;;26.30;80.30;;;;;;6150470;28;80650;-59
2023/08/27 04:21:19;;;;;;;3.65;3.10;;;26.30;79.50;;;;;;6152281;28;80646;-59
2023/08/27 04:24:20;;;;;;;4.28;2.88;;;26.40;79.50;;;;;;6147833;28;80632;-59
2023/08/27 04:27:20;;;;;;;4.07;2.88;;;26.40;79.80;;;;;;6149542;28;81913;-58
2023/08/27 04:30:21;;;;;;;4.38;2.75;;;26.40;79.50;;;;;;6150061;28;82334;-58
2023/08/27 04:33:22;;;;;;;3.83;2.67;;;26.40;79.40;;;;;;6149958;28;82961;-59
2023/08/27 04:36:22;;;;;;;4.70;3.40;;;26.40;79.40;;;;;;6150589;28;81647;-57
2023/08/27 04:39:23;;;;;;;4.05;2.83;;;26.40;79.40;;;;;;6150890;28;81726;-53
2023/08/27 04:42:24;;;;;;;4.43;2.42;;;26.50;79.90;;;;;;6149035;28;82158;-54
2023/08/27 04:45:25;;;;;;;4.50;2.78;;;26.50;79.20;;;;;;6150010;28;81296;-56
2023/08/27 04:48:25;;;;;;;8.38;3.00;;;26.40;79.30;;;;;;6146596;28;81965;-55
2023/08/27 04:51:29;;;;;;;5.10;2.83;;;26.50;79.30;;;;;;6144706;28;81091;-56
2023/08/27 04:54:29;;;;;;;4.90;2.58;;;26.50;79.30;;;;;;6149626;28;83333;-57
2023/08/27 04:57:30;;;;;;;5.72;3.00;;;26.50;79.20;;;;;;6148855;28;83331;-55
2023/08/27 05:00:31;;;;;;;3.30;2.70;;;26.50;78.90;;;;;;6149659;28;82549;-56
2023/08/27 05:03:31;;;;;;;5.38;2.78;;;26.50;78.90;;;;;;6121408;28;82392;-58
2023/08/27 05:06:32;;;;;;;11.13;2.97;;;26.50;78.90;;;;;;6130246;28;81816;-58
2023/08/27 05:09:33;;;;;;;5.97;2.50;;;26.60;79.00;;;;;;6140011;28;83593;-58
2023/08/27 05:12:33;;;;;;;4.03;2.60;;;26.60;78.70;;;;;;6142043;28;86032;-59
2023/08/27 05:15:34;;;;;;;4.47;2.50;;;26.60;79.00;;;;;;6139754;28;81509;-59
2023/08/27 05:18:34;;;;;;;4.55;2.60;;;26.70;79.10;;;;;;6144738;28;84301;-60
2023/08/27 05:21:35;;;;;;;5.10;2.90;;;26.70;79.30;;;;;;6134259;28;82781;-60
2023/08/27 05:24:37;;;;;;;5.22;2.88;;;26.70;78.90;;;;;;6142974;28;83269;-60
2023/08/27 05:27:43;;;;;;;2.65;2.30;;;26.70;78.40;;;;;;6147001;28;80908;-60
2023/08/27 05:30:44;;;;;;;5.03;2.58;;;26.70;78.20;;;;;;6127377;28;80275;-57
2023/08/27 05:33:44;;;;;;;5.72;2.35;;;26.70;78.40;;;;;;6108433;28;83552;-59
2023/08/27 05:36:45;;;;;;;4.93;2.50;;;26.70;78.30;;;;;;6140448;28;82038;-60
2023/08/27 05:39:46;;;;;;;3.17;2.35;;;26.70;78.70;;;;;;6140543;28;87980;-61
2023/08/27 05:42:46;;;;;;;4.32;2.60;;;26.70;78.80;;;;;;6151624;28;82285;-61
2023/08/27 05:45:48;;;;;;;3.88;2.67;;;26.70;78.40;;;;;;6135841;28;87107;-61
2023/08/27 05:48:50;;;;;;;7.32;2.85;;;26.70;78.60;;;;;;6142503;28;82620;-61
2023/08/27 05:51:51;;;;;;;4.57;2.97;;;26.80;78.60;;;;;;6136951;28;88314;-60
2023/08/27 05:54:51;;;;;;;4.85;2.92;;;26.80;78.50;;;;;;6135128;28;83343;-61
2023/08/27 05:57:52;;;;;;;4.57;2.92;;;26.80;78.70;;;;;;6132813;28;83129;-59
2023/08/27 06:00:56;;;;;;;5.00;3.05;;;26.80;78.40;;;;;;6125049;28;81893;-58
2023/08/27 06:03:57;;;;;;;10.13;6.65;;;26.80;78.50;;;;;;6137287;28;83722;-58
2023/08/27 06:06:58;;;;;;;6.72;4.57;;;26.80;79.00;;;;;;6135328;28;80487;-66
2023/08/27 06:09:59;;;;;;;11.90;5.80;;;26.80;79.10;;;;;;6128838;28;85871;-64
2023/08/27 06:12:59;;;;;;;8.13;5.50;;;26.80;79.20;;;;;;6145712;28;80667;-67
2023/08/27 06:16:00;;;;;;;11.90;5.88;;;26.90;79.80;;;;;;6140374;28;81997;-65
2023/08/27 06:19:00;;;;;;;8.07;5.40;;;26.90;79.20;;;;;;6137850;28;85657;-67
2023/08/27 06:22:01;;;;;;;12.73;6.20;;;26.90;79.60;;;;;;6135514;28;81028;-70
2023/08/27 06:25:02;;;;;;;9.90;6.72;;;26.90;79.40;;;;;;6137800;28;83498;-59
2023/08/27 06:28:02;;;;;;;13.80;7.65;;;27.00;80.10;;;;;;6152736;28;82463;-59
2023/08/27 06:31:03;;;;;;;12.65;7.47;;;27.00;80.80;;;;;;6150623;28;84166;-62
2023/08/27 06:34:04;;;;;;;10.30;6.57;;;27.00;81.30;;;;;;6124935;28;83438;-60
2023/08/27 06:37:05;;;;;;;11.77;7.05;;;27.00;81.20;;;;;;6113800;28;82427;-62
2023/08/27 06:40:07;;;;;;;13.68;7.22;;;27.10;81.60;;;;;;6130355;28;83718;-63
2023/08/27 06:43:08;;;;;;;11.00;7.22;;;27.00;81.90;;;;;;6153200;28;82386;-70
2023/08/27 06:46:16;;;;;;;10.93;6.53;;;27.00;81.80;;;;;;6154550;28;83020;-67
2023/08/27 06:49:17;;;;;;;9.32;6.18;;;27.10;81.10;;;;;;6149637;28;82746;-68
2023/08/27 06:52:18;;;;;;;9.60;5.38;;;27.00;80.50;;;;;;6155608;28;83632;-66
2023/08/27 06:55:18;;;;;;;12.35;5.70;;;27.10;80.00;;;;;;6151573;28;80640;-64
2023/08/27 06:58:19;;;;;;;7.15;5.30;;;27.00;80.10;;;;;;6137187;28;81281;-72
2023/08/27 07:01:20;;;;;;;8.15;4.78;;;27.10;79.90;;;;;;6128052;28;85185;-57
2023/08/27 07:04:20;;;;;;;8.57;4.63;;;27.00;79.80;;;;;;6142505;28;83655;-59
2023/08/27 07:07:21;;;;;;;17.45;5.18;;;27.10;80.00;;;;;;6145860;28;87774;-58
2023/08/27 07:10:22;;;;;;;13.32;5.10;;;27.10;80.00;;;;;;6121239;28;81142;-58
2023/08/27 07:13:22;;;;;;;5.90;4.38;;;27.10;80.00;;;;;;6128463;28;84084;-60
2023/08/27 07:16:23;;;;;;;6.95;4.70;;;27.10;79.80;;;;;;6145826;28;83498;-61
2023/08/27 07:19:23;;;;;;;6.32;4.63;;;27.20;79.60;;;;;;6145355;28;83322;-61
2023/08/27 07:22:25;;;;;;;9.40;4.25;;;27.00;80.30;;;;;;6146618;28;83397;-59
2023/08/27 07:25:25;;;;;;;7.25;4.45;;;27.10;80.10;;;;;;6140997;28;83573;-60
2023/08/27 07:28:26;;;;;;;7.38;4.30;;;27.10;80.10;;;;;;6143714;28;83525;-62
2023/08/27 07:31:27;;;;;;;6.38;3.90;;;27.10;79.40;;;;;;6139094;28;83432;-59
2023/08/27 07:34:27;;;;;;;7.57;3.88;;;27.10;79.10;;;;;;6146642;28;83447;-58
2023/08/27 07:37:28;;;;;;;5.95;3.83;;;27.10;78.80;;;;;;6129192;28;83621;-60
2023/08/27 07:40:29;;;;;;;7.20;3.53;;;27.10;78.90;;;;;;6132529;28;83184;-61
2023/08/27 07:43:30;;;;;;;4.78;3.10;;;27.10;78.30;;;;;;6145792;28;83367;-60
2023/08/27 07:46:30;;;;;;;7.22;4.50;;;27.10;78.20;;;;;;6140163;28;83110;-60
2023/08/27 07:49:31;;;;;;;6.32;3.83;;;27.10;78.10;;;;;;6126536;28;84646;-60
2023/08/27 07:52:31;;;;;;;7.13;4.53;;;27.20;78.00;;;;;;6138861;28;83869;-60
2023/08/27 07:55:34;;;;;;;4.85;3.47;;;27.20;78.00;;;;;;6143116;28;83427;-61
2023/08/27 07:58:35;;;;;;;4.15;3.55;;;27.30;77.90;;;;;;6130307;28;83689;-61
2023/08/27 08:01:35;;;;;;;4.50;3.42;;;27.20;78.80;;;;;;6133398;28;81566;-61
2023/08/27 08:04:36;;;;;;;5.95;3.78;;;27.20;78.30;;;;;;6170476;28;83262;-59
2023/08/27 08:07:36;;;;;;;6.45;3.22;;;27.30;78.40;;;;;;6133954;28;81737;-58
2023/08/27 08:10:37;;;;;;;6.93;3.35;;;27.30;78.10;;;;;;6147270;28;80450;-56
2023/08/27 08:13:40;;;;;;;11.23;4.82;;;27.30;77.50;;;;;;6143542;28;81543;-59
2023/08/27 08:16:40;;;;;;;8.32;4.38;;;27.40;77.50;;;;;;6150123;28;80946;-63
2023/08/27 08:19:41;;;;;;;11.68;4.80;;;27.40;77.40;;;;;;6148962;28;83676;-62
2023/08/27 08:22:42;;;;;;;10.82;3.90;;;27.50;77.00;;;;;;6130922;28;81630;-60
2023/08/27 08:25:42;;;;;;;7.55;3.60;;;27.50;76.50;;;;;;6140856;28;80983;-62
2023/08/27 08:28:43;;;;;;;8.02;3.30;;;27.40;76.70;;;;;;6124722;28;90684;-62
2023/08/27 08:31:43;;;;;;;7.68;3.72;;;27.40;76.70;;;;;;6140478;28;83041;-62
2023/08/27 08:34:44;;;;;;;4.88;3.13;;;27.50;76.50;;;;;;6130781;28;86987;-56
2023/08/27 08:37:44;;;;;;;5.88;3.83;;;27.50;76.50;;;;;;6133777;28;84585;-62
2023/08/27 08:40:45;;;;;;;4.47;3.10;;;27.50;76.60;;;;;;6135703;28;81001;-61
2023/08/27 08:43:46;;;;;;;7.38;3.47;;;27.50;76.20;;;;;;6151638;28;80602;-61
2023/08/27 08:46:46;;;;;;;6.13;3.50;;;27.50;76.30;;;;;;6143488;28;81385;-58
2023/08/27 08:49:47;;;;;;;4.53;3.33;;;27.50;75.90;;;;;;6148884;28;81149;-61
2023/08/27 08:52:47;;;;;;;6.20;3.67;;;27.50;76.20;;;;;;6131480;28;82728;-60
2023/08/27 08:55:48;;;;;;;6.63;2.72;;;27.60;76.30;;;;;;6114734;28;81039;-61
2023/08/27 08:58:48;;;;;;;3.45;3.15;;;27.60;76.20;;;;;;6145137;28;81553;-59
2023/08/27 09:01:49;;;;;;;6.15;3.42;;;27.60;76.10;;;;;;6145856;28;81175;-60
2023/08/27 09:04:49;;;;;;;7.43;4.13;;;27.60;75.90;;;;;;6144001;28;83211;-61
2023/08/27 09:07:50;;;;;;;11.43;3.80;;;27.60;75.90;;;;;;6133909;28;82934;-58
2023/08/27 09:10:52;;;;;;;5.50;3.58;;;27.50;76.00;;;;;;6129958;28;81243;-59
2023/08/27 09:13:53;;;;;;;5.72;3.70;;;27.50;76.50;;;;;;6115793;28;85825;-59
2023/08/27 09:16:53;;;;;;;15.55;4.05;;;27.50;76.80;;;;;;6152414;28;81556;-59
2023/08/27 09:19:54;;;;;;;6.63;3.97;;;27.60;76.70;;;;;;6154818;28;81048;-60
2023/08/27 09:22:54;;;;;;;4.90;3.90;;;27.70;76.40;;;;;;6151244;28;80395;-59
2023/08/27 09:25:56;;;;;;;7.15;4.65;;;27.60;75.90;;;;;;6130842;28;80550;-56
2023/08/27 09:28:57;;;;;;;6.93;3.80;;;27.60;76.50;;;;;;6141350;28;83360;-65
2023/08/27 09:31:57;;;;;;;4.90;3.65;;;27.60;77.10;;;;;;6146313;28;83221;-63
2023/08/27 09:34:58;;;;;;;7.40;4.03;;;27.70;77.50;;;;;;6155321;28;80638;-64
2023/08/27 09:37:59;;;;;;;6.43;3.58;;;27.70;77.00;;;;;;6146511;28;80407;-65
2023/08/27 09:40:59;;;;;;;5.53;3.67;;;27.60;76.60;;;;;;6156024;28;80638;-64
2023/08/27 09:44:00;;;;;;;7.13;4.00;;;27.60;77.50;;;;;;6153431;28;81230;-65
2023/08/27 09:47:00;;;;;;;5.50;4.20;;;27.50;77.60;;;;;;6155072;28;81462;-69
2023/08/27 09:50:01;;;;;;;7.13;3.60;;;27.60;77.80;;;;;;6155537;28;81748;-77
2023/08/27 09:53:02;;;;;;;5.03;3.60;;;27.60;78.10;;;;;;6151406;28;80533;-74
2023/08/27 09:56:02;;;;;;;6.40;4.30;;;27.50;77.60;;;;;;6155059;28;80579;-66
2023/08/27 09:59:03;;;;;;;8.40;5.03;;;27.50;78.30;;;;;;6149509;28;80338;-63
2023/08/27 10:02:03;;;;;;;7.35;4.53;;;27.60;78.60;;;;;;6155803;28;82813;-70
2023/08/27 10:05:04;;;;;;;6.28;4.10;;;27.60;77.90;;;;;;6153741;28;81316;-69
2023/08/27 10:08:05;;;;;;;8.10;4.90;;;27.70;77.90;;;;;;6138012;28;81849;-61
2023/08/27 10:11:06;;;;;;;5.53;4.72;;;27.70;77.40;;;;;;6152135;28;80842;-71
2023/08/27 10:14:07;;;;;;;7.25;4.63;;;27.70;78.00;;;;;;6157887;28;81114;-68
2023/08/27 10:17:07;;;;;;;8.63;4.57;;;27.80;78.00;;;;;;6162133;28;80565;-71
2023/08/27 10:20:08;;;;;;;7.43;4.35;;;27.80;77.60;;;;;;6152667;28;80906;-74
2023/08/27 10:23:08;;;;;;;6.53;4.90;;;27.80;78.20;;;;;;6154589;28;81429;-72
2023/08/27 10:26:09;;;;;;;4.88;3.97;;;27.90;78.00;;;;;;6155770;28;81325;-73
2023/08/27 10:29:09;;;;;;;6.03;4.32;;;27.90;77.50;;;;;;6148173;28;82394;-74
2023/08/27 10:32:10;;;;;;;7.88;4.53;;;27.90;77.10;;;;;;6159116;28;81095;-70
2023/08/27 10:35:10;;;;;;;12.00;4.80;;;27.90;78.20;;;;;;6154603;28;80528;-71
2023/08/27 10:38:11;;;;;;;9.05;4.10;;;27.70;75.00;;;;;;6147333;28;81124;-68
2023/08/27 10:41:11;;;;;;;6.50;4.30;;;27.30;72.10;;;;;;6154499;28;81938;-59
2023/08/27 10:44:13;;;;;;;6.40;4.22;;;27.10;69.90;;;;;;6148616;28;81468;-60
2023/08/27 10:47:17;;;;;;;9.15;4.25;;;26.80;68.30;;;;;;6147164;28;80790;-59
2023/08/27 10:50:21;;;;;;;5.45;3.83;;;26.60;69.60;;;;;;6145346;28;83145;-59
2023/08/27 10:53:22;;;;;;;6.47;4.22;;;26.80;73.70;;;;;;6140201;28;81096;-59
2023/08/27 10:56:22;;;;;;;9.40;4.72;;;26.90;74.20;;;;;;6149820;28;80465;-61
2023/08/27 10:59:23;;;;;;;8.13;4.43;;;27.00;75.20;;;;;;6149424;28;80990;-61
2023/08/27 11:02:24;;;;;;;6.47;4.50;;;27.10;75.10;;;;;;6151350;28;81434;-63
2023/08/27 11:05:24;;;;;;;5.78;4.55;;;27.20;74.80;;;;;;6151002;28;82122;-61
2023/08/27 11:08:26;;;;;;;5.45;4.20;;;27.30;75.90;;;;;;6150192;28;83318;-59
2023/08/27 11:11:26;;;;;;;7.25;4.05;;;27.30;76.80;;;;;;6151188;28;85281;-61
2023/08/27 11:14:27;;;;;;;8.07;4.78;;;27.40;78.10;;;;;;6142747;28;87593;-61
2023/08/27 11:17:27;;;;;;;5.50;4.63;;;27.40;79.00;;;;;;6140467;28;80912;-66
2023/08/27 11:20:28;;;;;;;6.75;5.10;;;27.50;78.70;;;;;;6125641;28;80406;-69
2023/08/27 11:23:28;;;;;;;9.30;5.38;;;27.50;78.50;;;;;;6125643;28;81114;-70
2023/08/27 11:26:29;;;;;;;8.30;4.60;;;27.60;78.30;;;;;;6127375;28;80563;-69
2023/08/27 11:29:29;;;;;;;7.60;5.07;;;27.60;78.70;;;;;;6127770;28;82082;-69
2023/08/27 11:32:30;;;;;;;6.07;4.78;;;27.70;77.80;;;;;;6128522;28;81799;-66
2023/08/27 11:35:30;;;;;;;9.05;4.78;;;27.70;77.30;;;;;;6130071;28;80692;-60
2023/08/27 11:38:31;;;;;;;9.05;4.95;;;27.80;77.20;;;;;;6129989;28;87074;-63
2023/08/27 11:41:32;;;;;;;9.10;4.68;;;27.80;77.10;;;;;;6127269;28;81327;-68
2023/08/27 11:44:32;;;;;;;6.35;4.85;;;27.90;77.20;;;;;;6125766;28;83247;-69
2023/08/27 11:47:33;;;;;;;8.65;4.53;;;27.80;79.10;;;;;;6128466;28;80490;-69
2023/08/27 11:50:33;;;;;;;5.32;4.45;;;27.60;77.40;;;;;;6128129;28;80218;-71
2023/08/27 11:53:34;;;;;;;6.57;4.78;;;27.60;78.10;;;;;;6128241;28;80534;-71
2023/08/27 11:56:34;;;;;;;9.93;5.43;;;27.60;78.70;;;;;;6109127;28;82233;-68
2023/08/27 11:59:35;;;;;;;5.88;4.55;;;27.70;78.80;;;;;;6114152;28;82391;-66
2023/08/27 12:02:35;;;;;;;6.75;5.18;;;27.70;80.60;;;;;;6119746;28;82748;-70
2023/08/27 12:05:36;;;;;;;7.10;5.90;;;27.80;80.00;;;;;;6126412;28;80195;-64
2023/08/27 12:08:36;;;;;;;9.18;6.03;;;27.80;81.10;;;;;;6124755;28;81272;-68
2023/08/27 12:11:37;;;;;;;8.32;5.45;;;27.80;81.20;;;;;;6125077;28;80850;-60
2023/08/27 12:14:37;;;;;;;10.13;6.50;;;27.80;81.00;;;;;;6122186;28;81130;-62
2023/08/27 12:17:38;;;;;;;10.57;6.75;;;27.90;82.90;;;;;;6119923;28;80696;-61
2023/08/27 12:20:39;;;;;;;8.38;5.90;;;27.90;81.70;;;;;;6125085;28;80428;-63
2023/08/27 12:23:39;;;;;;;13.13;6.30;;;27.90;82.60;;;;;;6124314;28;81017;-68
2023/08/27 12:26:40;;;;;;;7.65;5.95;;;27.90;81.40;;;;;;6119998;28;84449;-62
2023/08/27 12:29:40;;;;;;;7.40;6.20;;;28.00;80.80;;;;;;6122262;28;86632;-61
2023/08/27 12:32:41;;;;;;;9.85;6.25;;;28.00;80.50;;;;;;6112584;28;80880;-62
2023/08/27 12:35:42;;;;;;;8.10;5.70;;;28.00;80.70;;;;;;6125040;28;86024;-65
2023/08/27 12:38:42;;;;;;;7.55;6.35;;;28.00;80.70;;;;;;6123330;28;80684;-62
2023/08/27 12:41:44;;;;;;;7.63;5.70;;;28.00;81.80;;;;;;6115232;28;80923;-62
2023/08/27 12:44:44;;;;;;;6.80;6.10;;;28.10;83.00;;;;;;6123952;28;80958;-61
2023/08/27 12:47:45;;;;;;;7.22;6.05;;;28.10;83.80;;;;;;6131658;28;84753;-58
2023/08/27 12:50:45;;;;;;;8.50;6.25;;;28.10;82.90;;;;;;6126277;28;82133;-66
2023/08/27 12:53:46;;;;;;;7.50;6.07;;;28.10;82.30;;;;;;6129933;28;80716;-64
2023/08/27 12:56:46;;;;;;;10.50;7.47;;;28.10;81.00;;;;;;6132451;28;80690;-66
2023/08/27 12:59:47;;;;;;;16.98;6.85;;;28.10;80.80;;;;;;6130477;28;80151;-67
2023/08/27 13:02:47;;;;;;;8.25;5.80;;;28.10;80.60;;;;;;6126579;28;80666;-69
2023/08/27 13:05:48;;;;;;;7.80;6.68;;;28.10;80.60;;;;;;6127021;28;80780;-71
2023/08/27 13:08:48;;;;;;;8.50;6.65;;;28.10;80.10;;;;;;6131272;28;80693;-62
2023/08/27 13:11:51;;;;;;;9.23;6.85;;;28.00;80.00;;;;;;6130408;28;85585;-63
2023/08/27 13:14:52;;;;;;;9.32;7.00;;;28.10;80.00;;;;;;6129956;28;80509;-62
2023/08/27 13:17:52;;;;;;;6.75;6.05;;;28.10;79.60;;;;;;6132081;28;80171;-62
2023/08/27 13:20:53;;;;;;;11.60;6.90;;;28.10;79.20;;;;;;6132759;28;80616;-62
2023/08/27 13:23:53;;;;;;;8.65;6.40;;;28.10;78.80;;;;;;6132039;28;80845;-62
2023/08/27 13:26:54;;;;;;;6.88;6.05;;;28.10;78.60;;;;;;6133076;28;80321;-65
2023/08/27 13:29:54;;;;;;;8.25;6.82;;;28.10;78.30;;;;;;6128364;28;82319;-63
2023/08/27 13:32:55;;;;;;;7.65;6.65;;;28.10;77.90;;;;;;6131416;28;81229;-63
2023/08/27 13:35:55;;;;;;;10.13;7.18;;;28.10;77.90;;;;;;6131669;28;80748;-61
2023/08/27 13:38:56;;;;;;;10.60;7.22;;;28.10;77.80;;;;;;6131991;28;81611;-63
2023/08/27 13:41:56;;;;;;;7.93;6.50;;;28.20;77.70;;;;;;6132979;28;80945;-64
2023/08/27 13:44:58;;;;;;;8.10;6.78;;;28.10;77.50;;;;;;6129345;28;81171;-63
2023/08/27 13:47:59;;;;;;;15.07;7.88;;;28.10;77.40;;;;;;6133370;28;80889;-68
2023/08/27 13:50:59;;;;;;;10.18;7.60;;;28.10;77.50;;;;;;6126611;28;80238;-64
2023/08/27 13:54:00;;;;;;;7.97;6.75;;;28.10;77.50;;;;;;6132832;28;81841;-60
2023/08/27 13:57:00;;;;;;;8.55;7.65;;;28.20;77.60;;;;;;6131701;28;81296;-64
2023/08/27 14:00:01;;;;;;;9.57;6.70;;;28.20;77.60;;;;;;6129967;28;80805;-66
2023/08/27 14:03:01;;;;;;;8.48;7.05;;;28.20;77.70;;;;;;6132945;28;82179;-60
2023/08/27 14:06:02;;;;;;;7.78;6.95;;;28.10;77.40;;;;;;6132004;28;80079;-59
2023/08/27 14:09:03;;;;;;;8.27;6.57;;;28.20;77.70;;;;;;6129950;28;80550;-60
2023/08/27 14:12:04;;;;;;;12.00;7.57;;;28.20;77.60;;;;;;6130487;28;80485;-63
2023/08/27 14:15:04;;;;;;;10.38;7.68;;;28.20;77.70;;;;;;6127519;28;80546;-60
2023/08/27 14:18:05;;;;;;;8.27;7.43;;;28.20;77.60;;;;;;6132505;28;80570;-59
2023/08/27 14:21:05;;;;;;;9.95;7.75;;;28.20;77.50;;;;;;6131537;28;81244;-65
2023/08/27 14:24:06;;;;;;;11.68;7.88;;;28.20;77.50;;;;;;6130163;28;80391;-63
2023/08/27 14:27:07;;;;;;;12.02;7.43;;;28.20;77.70;;;;;;6129968;28;80815;-63
2023/08/27 14:30:08;;;;;;;10.98;7.32;;;28.20;77.60;;;;;;6128285;28;81067;-65
2023/08/27 14:33:08;;;;;;;9.85;8.02;;;28.20;77.90;;;;;;6121853;28;83160;-65
2023/08/27 14:36:09;;;;;;;10.77;8.20;;;28.20;77.90;;;;;;6125149;28;86018;-68
2023/08/27 14:39:09;;;;;;;10.98;8.38;;;28.20;78.00;;;;;;6117549;28;83784;-69
2023/08/27 14:42:10;;;;;;;9.20;7.53;;;28.10;77.80;;;;;;6074370;28;83962;-66
2023/08/27 14:45:10;;;;;;;8.70;7.80;;;28.20;78.40;;;;;;6106518;28;83721;-62
2023/08/27 14:48:11;;;;;;;8.93;7.80;;;28.20;78.50;;;;;;6127893;28;80433;-69
2023/08/27 14:51:11;;;;;;;8.63;7.72;;;28.20;78.20;;;;;;6108408;28;83772;-66
2023/08/27 14:54:12;;;;;;;10.75;8.40;;;28.10;78.70;;;;;;6100502;28;83866;-65
2023/08/27 14:57:12;;;;;;;12.05;8.23;;;27.80;75.80;;;;;;6128675;28;88429;-66
2023/08/27 15:00:13;;;;;;;10.48;7.82;;;27.50;73.20;;;;;;6114574;28;83044;-67
2023/08/27 15:03:14;;;;;;;11.80;7.88;;;27.20;71.20;;;;;;6127883;28;80834;-65
2023/08/27 15:06:14;;;;;;;11.00;7.90;;;27.00;70.40;;;;;;6152766;28;81385;-70
2023/08/27 15:09:15;;;;;;;22.00;8.38;;;26.80;69.60;;;;;;6153416;28;80373;-68
2023/08/27 15:12:18;;;;;;;10.32;7.95;;;26.70;68.60;;;;;;6141460;28;83273;-70
2023/08/27 15:15:19;;;;;;;9.32;7.05;;;26.50;68.00;;;;;;6119221;28;84914;-67
2023/08/27 15:18:19;;;;;;;10.85;7.68;;;26.40;66.90;;;;;;6148132;28;80581;-65
2023/08/27 15:21:20;;;;;;;10.07;7.53;;;26.30;66.60;;;;;;6153502;28;80909;-65
2023/08/27 15:24:22;;;;;;;12.23;7.88;;;26.20;66.80;;;;;;6152925;28;80934;-66
2023/08/27 15:27:23;;;;;;;8.70;7.80;;;26.10;66.40;;;;;;6153483;28;82918;-67
2023/08/27 15:30:23;;;;;;;11.18;8.23;;;26.10;65.80;;;;;;6131166;28;83328;-68
2023/08/27 15:33:24;;;;;;;10.07;7.70;;;26.00;65.60;;;;;;6142170;28;80720;-67
2023/08/27 15:36:24;;;;;;;8.82;7.20;;;25.90;64.70;;;;;;6147313;28;80903;-58
2023/08/27 15:39:25;;;;;;;11.40;7.13;;;25.80;64.60;;;;;;6129789;28;80870;-59